Time;durP1;ratioP1;P1;durP2;ratioP2;P2;SDS_P1;SDS_P2;PMS_P1;PMS_P2;Temp;Humidity;BMP_temperature;BMP_pressure;BME280_temperature;BME280_humidity;BME280_pressure;Samples;Min_cycle;Max_cycle;Signal;HPM_P1;HPM_P2
2023/03/10 00:00:44;;;;;;;32.42;18.33;;;2.40;99.90;;;;;;5110462;27;20073;-81
2023/03/10 00:03:10;;;;;;;29.38;16.45;;;1.70;99.90;;;;;;5108687;27;20127;-78
2023/03/10 00:05:37;;;;;;;30.23;17.60;;;3.00;99.90;;;;;;5110587;27;20050;-78
2023/03/10 00:08:03;;;;;;;29.27;17.40;;;1.70;99.90;;;;;;5091796;27;20092;-77
2023/03/10 00:10:29;;;;;;;29.10;16.60;;;3.20;99.90;;;;;;5092751;27;20078;-77
2023/03/10 00:12:55;;;;;;;27.05;17.30;;;1.70;99.90;;;;;;5109476;27;20088;-78
2023/03/10 00:15:22;;;;;;;26.45;16.98;;;1.70;99.90;;;;;;5108938;27;20145;-78
2023/03/10 00:17:54;;;;;;;28.48;17.30;;;1.70;99.90;;;;;;5110570;27;20401;-77
2023/03/10 00:20:21;;;;;;;30.03;16.50;;;1.70;99.90;;;;;;5091337;27;20134;-77
2023/03/10 00:22:47;;;;;;;27.65;16.88;;;1.70;99.90;;;;;;5109872;27;20036;-77
2023/03/10 00:25:14;;;;;;;28.75;17.13;;;2.10;99.90;;;;;;5091645;27;20089;-78
2023/03/10 00:27:40;;;;;;;26.17;16.75;;;1.60;99.90;;;;;;5092683;27;20055;-78
2023/03/10 00:30:06;;;;;;;28.58;17.08;;;1.70;99.90;;;;;;5109410;27;20164;-78
2023/03/10 00:32:37;;;;;;;24.20;16.40;;;1.60;99.90;;;;;;5108637;27;20087;-78
2023/03/10 00:35:03;;;;;;;27.80;16.15;;;1.90;99.90;;;;;;5110091;27;20043;-78
2023/03/10 00:37:29;;;;;;;26.23;16.67;;;1.70;99.90;;;;;;5108541;27;20039;-78
2023/03/10 00:39:55;;;;;;;29.77;17.63;;;2.40;99.90;;;;;;5110177;27;20091;-78
2023/03/10 00:42:21;;;;;;;25.80;16.35;;;1.70;99.90;;;;;;5108464;27;20035;-78
2023/03/10 00:44:47;;;;;;;30.05;17.30;;;1.70;99.90;;;;;;5092225;27;20571;-78
2023/03/10 00:47:13;;;;;;;25.75;16.17;;;3.00;99.90;;;;;;5108666;27;20043;-78
2023/03/10 00:49:38;;;;;;;23.60;14.50;;;1.70;99.90;;;;;;5127136;27;20615;-77
2023/03/10 00:52:04;;;;;;;25.17;14.10;;;2.90;99.90;;;;;;5109643;27;20042;-78
2023/03/10 00:54:30;;;;;;;19.38;12.82;;;1.70;99.90;;;;;;5108112;27;20054;-77
2023/03/10 00:56:56;;;;;;;18.42;12.02;;;1.70;99.90;;;;;;5128684;27;20068;-78
2023/03/10 00:59:21;;;;;;;16.08;10.13;;;1.70;99.90;;;;;;5091317;27;20478;-78
2023/03/10 01:01:47;;;;;;;16.38;10.40;;;1.70;99.90;;;;;;5108863;27;20391;-78
2023/03/10 01:04:15;;;;;;;16.92;9.88;;;3.10;99.90;;;;;;5127047;27;20046;-78
2023/03/10 01:06:43;;;;;;;14.82;9.98;;;1.70;99.90;;;;;;5091508;27;20130;-78
2023/03/10 01:09:09;;;;;;;16.38;10.27;;;1.70;99.90;;;;;;5092954;27;20047;-78
2023/03/10 01:11:36;;;;;;;18.67;9.95;;;2.90;99.90;;;;;;5107889;27;20455;-78
2023/03/10 01:14:04;;;;;;;16.70;10.13;;;1.70;99.90;;;;;;5127974;27;20046;-79
2023/03/10 01:16:30;;;;;;;16.05;9.45;;;1.70;99.90;;;;;;5107808;27;20125;-78
2023/03/10 01:18:57;;;;;;;18.55;9.93;;;1.80;99.90;;;;;;5127243;27;20062;-78
2023/03/10 01:21:27;;;;;;;15.30;9.65;;;1.70;99.90;;;;;;5126949;27;20039;-78
2023/03/10 01:23:53;;;;;;;15.98;10.68;;;1.90;99.90;;;;;;5107814;27;20134;-78
2023/03/10 01:26:19;;;;;;;16.48;9.63;;;1.80;99.90;;;;;;5109324;27;20125;-79
2023/03/10 01:28:45;;;;;;;18.67;10.95;;;1.80;99.90;;;;;;5107246;27;20072;-78
2023/03/10 01:31:11;;;;;;;15.80;10.40;;;3.40;99.90;;;;;;5109343;28;20229;-78
2023/03/10 01:33:38;;;;;;;16.55;10.50;;;1.80;99.90;;;;;;5089531;27;20046;-78
2023/03/10 01:36:14;;;;;;;15.43;10.48;;;1.80;99.90;;;;;;5091773;28;20076;-77
2023/03/10 01:38:41;;;;;;;18.55;11.68;;;1.80;99.90;;;;;;5108462;28;20040;-77
2023/03/10 01:41:08;;;;;;;16.70;10.80;;;2.80;99.90;;;;;;5107885;28;20486;-77
2023/03/10 01:43:41;;;;;;;19.48;11.07;;;1.80;99.90;;;;;;5108950;28;20156;-76
2023/03/10 01:46:34;;;;;;;17.92;10.73;;;1.80;99.90;;;;;;5107179;28;20505;-79
2023/03/10 01:49:09;;;;;;;17.87;11.07;;;1.80;99.90;;;;;;5108533;28;20047;-79
2023/03/10 01:51:36;;;;;;;17.55;10.32;;;1.80;99.90;;;;;;5108174;28;20047;-79
2023/03/10 01:54:08;;;;;;;19.85;11.30;;;1.80;99.90;;;;;;5107283;28;20105;-79
2023/03/10 01:56:35;;;;;;;15.10;10.13;;;1.80;99.90;;;;;;5092031;28;20047;-79
2023/03/10 01:59:01;;;;;;;17.63;9.80;;;1.80;99.90;;;;;;5106981;28;20101;-79
2023/03/10 02:01:28;;;;;;;15.57;9.82;;;1.80;99.90;;;;;;5108385;28;20051;-79
2023/03/10 02:04:17;;;;;;;15.27;10.05;;;1.80;99.90;;;;;;5107251;28;20058;-78
2023/03/10 02:06:46;;;;;;;16.40;10.40;;;1.90;99.90;;;;;;5107466;28;20039;-78
2023/03/10 02:09:13;;;;;;;15.05;9.63;;;1.90;99.90;;;;;;5109075;28;20222;-77
2023/03/10 02:11:39;;;;;;;15.45;10.13;;;2.70;99.90;;;;;;5125349;28;20050;-77
2023/03/10 02:14:05;;;;;;;19.50;10.95;;;2.40;99.90;;;;;;5127367;28;20267;-77
2023/03/10 02:16:32;;;;;;;17.90;10.48;;;1.80;99.90;;;;;;5073193;28;20035;-77
2023/03/10 02:18:58;;;;;;;18.83;10.88;;;1.90;99.90;;;;;;5126742;28;20165;-77
2023/03/10 02:21:44;;;;;;;18.98;11.45;;;2.10;99.90;;;;;;5126258;28;20070;-78
2023/03/10 02:24:28;;;;;;;18.55;11.82;;;1.80;99.90;;;;;;5090066;28;20047;-78
2023/03/10 02:27:15;;;;;;;17.58;11.10;;;1.80;99.90;;;;;;5108344;28;20080;-77
2023/03/10 02:29:47;;;;;;;18.65;10.88;;;1.80;99.90;;;;;;5125731;28;20518;-77
2023/03/10 02:32:14;;;;;;;17.95;11.48;;;1.80;99.90;;;;;;5126667;28;20070;-77
2023/03/10 02:34:40;;;;;;;18.38;11.10;;;1.50;99.90;;;;;;5129044;28;20478;-77
2023/03/10 02:37:06;;;;;;;18.10;10.48;;;1.80;99.90;;;;;;5094748;28;20078;-77
2023/03/10 02:39:31;;;;;;;19.30;11.25;;;1.80;99.90;;;;;;5134262;28;20057;-77
2023/03/10 02:41:57;;;;;;;18.25;10.52;;;1.80;99.90;;;;;;5130007;28;20039;-77
2023/03/10 02:44:24;;;;;;;17.58;10.43;;;3.40;99.90;;;;;;5112340;27;20043;-77
2023/03/10 02:46:50;;;;;;;17.67;10.77;;;1.80;99.90;;;;;;5130367;27;20039;-77
2023/03/10 02:49:18;;;;;;;17.52;11.00;;;2.20;99.90;;;;;;5130007;27;20627;-78
2023/03/10 02:51:45;;;;;;;15.88;10.20;;;1.80;99.90;;;;;;5130477;27;20050;-77
2023/03/10 02:54:12;;;;;;;17.52;10.82;;;2.40;99.90;;;;;;5110537;27;20409;-77
2023/03/10 02:56:38;;;;;;;17.73;11.50;;;2.80;99.90;;;;;;5112244;27;20120;-78
2023/03/10 02:59:06;;;;;;;18.50;11.25;;;3.30;99.90;;;;;;5110588;27;20043;-77
2023/03/10 03:01:31;;;;;;;19.67;11.15;;;1.70;99.90;;;;;;5129854;27;20624;-78
2023/03/10 03:03:57;;;;;;;21.30;11.88;;;1.70;99.90;;;;;;5129475;27;20043;-77
2023/03/10 03:06:24;;;;;;;20.30;12.30;;;1.70;99.90;;;;;;5110730;27;20054;-77
2023/03/10 03:08:49;;;;;;;20.23;11.50;;;1.70;99.90;;;;;;5130147;27;20355;-78
2023/03/10 03:11:16;;;;;;;20.95;13.32;;;3.10;99.90;;;;;;5128869;27;20032;-77
2023/03/10 03:13:41;;;;;;;21.33;13.73;;;2.90;99.90;;;;;;5111617;27;20106;-77
2023/03/10 03:16:08;;;;;;;22.67;13.25;;;1.60;99.90;;;;;;5092987;27;20122;-77
2023/03/10 03:18:35;;;;;;;23.92;12.95;;;1.60;99.90;;;;;;5130008;27;20397;-78
2023/03/10 03:21:10;;;;;;;22.13;13.18;;;1.60;99.90;;;;;;5128610;27;20054;-78
2023/03/10 03:23:37;;;;;;;23.35;14.80;;;1.60;99.90;;;;;;5128640;27;20039;-77
2023/03/10 03:26:03;;;;;;;23.48;14.75;;;1.60;99.90;;;;;;5111026;27;20054;-77
2023/03/10 03:28:29;;;;;;;24.80;14.52;;;1.60;99.90;;;;;;5109989;27;20074;-77
2023/03/10 03:30:55;;;;;;;23.67;14.07;;;1.60;99.90;;;;;;5129803;27;20113;-77
2023/03/10 03:33:21;;;;;;;21.95;14.43;;;1.80;99.90;;;;;;5127738;27;20042;-77
2023/03/10 03:35:46;;;;;;;23.52;14.43;;;2.60;99.90;;;;;;5129246;27;20070;-77
2023/03/10 03:38:12;;;;;;;22.42;15.30;;;1.60;99.90;;;;;;5128507;27;20050;-78
2023/03/10 03:40:38;;;;;;;24.55;15.85;;;1.60;99.90;;;;;;5128314;27;20039;-78
2023/03/10 03:43:05;;;;;;;22.75;13.35;;;1.60;99.90;;;;;;5129060;27;20077;-78
2023/03/10 03:45:31;;;;;;;22.92;14.57;;;1.60;99.90;;;;;;5109302;27;20481;-78
2023/03/10 03:47:58;;;;;;;21.52;13.05;;;1.60;99.90;;;;;;5111280;27;20043;-78
2023/03/10 03:50:24;;;;;;;21.35;14.05;;;1.60;99.90;;;;;;5109294;27;20526;-78
2023/03/10 03:52:50;;;;;;;21.60;13.10;;;2.90;99.90;;;;;;5093248;27;20051;-78
2023/03/10 03:55:17;;;;;;;25.90;14.10;;;1.60;99.90;;;;;;5091608;28;20043;-78
2023/03/10 03:57:44;;;;;;;24.60;13.60;;;1.60;99.90;;;;;;5092521;27;20055;-78
2023/03/10 04:00:16;;;;;;;26.83;14.77;;;1.60;99.90;;;;;;5092955;27;20059;-77
2023/03/10 04:02:41;;;;;;;24.50;13.88;;;1.60;99.90;;;;;;5108620;27;20126;-78
2023/03/10 04:05:07;;;;;;;24.10;14.73;;;3.10;99.90;;;;;;5076704;27;20130;-78
2023/03/10 04:07:33;;;;;;;23.05;13.88;;;1.60;99.90;;;;;;5108731;27;20055;-78
2023/03/10 04:09:59;;;;;;;24.95;14.10;;;1.60;99.90;;;;;;5093380;27;20043;-78
2023/03/10 04:12:26;;;;;;;24.17;14.50;;;1.60;99.90;;;;;;5091944;27;20130;-79
2023/03/10 04:14:52;;;;;;;23.35;14.63;;;1.60;99.90;;;;;;5092128;27;20474;-78
2023/03/10 04:17:17;;;;;;;24.70;15.35;;;1.60;99.90;;;;;;5092459;27;20078;-78
2023/03/10 04:19:43;;;;;;;25.35;14.65;;;1.60;99.90;;;;;;5092153;27;20383;-79
2023/03/10 04:22:09;;;;;;;27.00;14.90;;;1.60;99.90;;;;;;5093204;27;20520;-79
2023/03/10 04:24:38;;;;;;;26.42;15.45;;;1.60;99.90;;;;;;5091108;27;20039;-78
2023/03/10 04:27:04;;;;;;;25.67;15.48;;;2.70;99.90;;;;;;5109630;27;20046;-79
2023/03/10 04:29:30;;;;;;;24.48;14.65;;;2.10;99.90;;;;;;5108642;27;20065;-78
2023/03/10 04:31:56;;;;;;;24.88;15.10;;;1.60;99.90;;;;;;5092299;27;20165;-78
2023/03/10 04:34:21;;;;;;;25.40;14.20;;;3.10;99.90;;;;;;5109171;27;20572;-78
2023/03/10 04:36:47;;;;;;;29.10;17.65;;;3.10;99.90;;;;;;5091282;27;20047;-79
2023/03/10 04:39:14;;;;;;;27.30;15.95;;;2.30;99.90;;;;;;5110164;27;20043;-78
2023/03/10 04:41:39;;;;;;;33.35;18.85;;;1.60;99.90;;;;;;5074134;27;20039;-78
2023/03/10 04:44:05;;;;;;;33.58;19.08;;;1.60;99.90;;;;;;5092222;27;20089;-78
2023/03/10 04:46:31;;;;;;;32.10;19.10;;;1.60;99.90;;;;;;5126682;27;20129;-79
2023/03/10 04:48:57;;;;;;;34.33;20.17;;;0.80;99.90;;;;;;5109001;27;20051;-79
2023/03/10 04:51:23;;;;;;;36.40;20.90;;;2.60;99.90;;;;;;5091696;27;20065;-78
2023/03/10 04:53:49;;;;;;;38.72;21.73;;;1.90;99.90;;;;;;5090905;27;20070;-77
2023/03/10 04:56:15;;;;;;;40.40;23.00;;;1.60;99.90;;;;;;5128317;27;20474;-77
2023/03/10 04:58:41;;;;;;;43.70;25.58;;;1.50;99.90;;;;;;5126143;27;20049;-77
2023/03/10 05:01:11;;;;;;;44.25;24.90;;;2.70;99.90;;;;;;5127552;27;20566;-78
2023/03/10 05:03:37;;;;;;;44.80;24.95;;;1.50;99.90;;;;;;5107909;27;20236;-78
2023/03/10 05:06:03;;;;;;;47.38;25.80;;;1.50;99.90;;;;;;5108576;27;20043;-79
2023/03/10 05:08:29;;;;;;;45.47;25.35;;;1.50;99.90;;;;;;5127082;27;20047;-78
2023/03/10 05:10:55;;;;;;;43.60;25.20;;;1.50;99.90;;;;;;5126301;27;20103;-79
2023/03/10 05:13:21;;;;;;;47.45;25.17;;;1.60;99.90;;;;;;5076014;27;20108;-79
2023/03/10 05:15:47;;;;;;;48.97;26.23;;;1.40;99.90;;;;;;5125787;27;20039;-79
2023/03/10 05:18:13;;;;;;;49.20;26.02;;;2.50;99.90;;;;;;5128013;27;20099;-76
2023/03/10 05:20:39;;;;;;;48.22;25.75;;;1.40;99.90;;;;;;5107470;27;20043;-76
2023/03/10 05:23:05;;;;;;;42.60;24.20;;;1.40;99.90;;;;;;5108305;27;20122;-78
2023/03/10 05:25:31;;;;;;;46.88;24.67;;;1.40;99.90;;;;;;5108047;28;20123;-78
2023/03/10 05:27:57;;;;;;;47.38;24.60;;;1.40;99.90;;;;;;5126465;27;20110;-78
2023/03/10 05:30:23;;;;;;;43.92;24.50;;;1.40;99.90;;;;;;5092032;28;20475;-79
2023/03/10 05:32:48;;;;;;;45.05;24.35;;;1.30;99.90;;;;;;5125725;27;20044;-78
2023/03/10 05:35:14;;;;;;;41.13;23.63;;;1.30;99.90;;;;;;5127783;27;20379;-78
2023/03/10 05:37:43;;;;;;;42.25;23.08;;;2.30;99.90;;;;;;5107423;28;20094;-78
2023/03/10 05:40:12;;;;;;;36.55;22.23;;;1.30;99.90;;;;;;5126864;28;20470;-78
2023/03/10 05:42:38;;;;;;;39.22;21.13;;;1.30;99.90;;;;;;5108502;28;20047;-78
2023/03/10 05:45:05;;;;;;;35.55;20.85;;;2.80;99.90;;;;;;5107952;28;20040;-78
2023/03/10 05:47:32;;;;;;;37.38;21.80;;;1.30;99.90;;;;;;5127843;28;20043;-79
2023/03/10 05:49:59;;;;;;;38.75;21.92;;;1.10;99.90;;;;;;5125858;28;20122;-77
2023/03/10 05:52:24;;;;;;;36.05;20.50;;;2.20;99.90;;;;;;5108883;28;20391;-76
2023/03/10 05:54:50;;;;;;;38.13;20.55;;;1.30;99.90;;;;;;5125589;28;20043;-77
2023/03/10 05:57:16;;;;;;;31.45;18.95;;;1.50;99.90;;;;;;5108080;28;20047;-77
2023/03/10 05:59:42;;;;;;;32.15;17.70;;;1.20;99.90;;;;;;5090812;28;20445;-77
2023/03/10 06:02:08;;;;;;;31.20;17.95;;;2.70;99.90;;;;;;5090828;28;20120;-76
2023/03/10 06:04:33;;;;;;;36.90;18.00;;;1.20;99.90;;;;;;5108535;28;20067;-77
2023/03/10 06:07:00;;;;;;;28.48;16.88;;;1.20;99.90;;;;;;5125368;28;20082;-77
2023/03/10 06:09:27;;;;;;;31.58;16.25;;;2.50;99.90;;;;;;5127158;28;20039;-77
2023/03/10 06:11:53;;;;;;;29.23;16.83;;;1.20;99.90;;;;;;5125850;28;20072;-79
2023/03/10 06:14:18;;;;;;;31.00;16.40;;;1.20;99.90;;;;;;5091028;28;20039;-78
2023/03/10 06:16:50;;;;;;;25.83;15.20;;;1.20;99.90;;;;;;5090503;28;20047;-78
2023/03/10 06:19:16;;;;;;;30.27;15.85;;;2.80;99.90;;;;;;5127272;27;20408;-79
2023/03/10 06:21:42;;;;;;;28.23;15.90;;;1.10;99.90;;;;;;5130899;27;20561;-79
2023/03/10 06:24:08;;;;;;;27.65;15.95;;;1.10;99.90;;;;;;5093843;27;20130;-79
2023/03/10 06:26:34;;;;;;;24.80;14.77;;;1.20;99.90;;;;;;5131500;27;20035;-77
2023/03/10 06:28:59;;;;;;;26.23;14.30;;;1.10;99.90;;;;;;5110629;27;20443;-77
2023/03/10 06:31:26;;;;;;;24.08;14.35;;;1.40;99.90;;;;;;5112064;27;20042;-78
2023/03/10 06:33:52;;;;;;;23.75;13.63;;;1.10;99.90;;;;;;5129829;27;20047;-77
2023/03/10 06:36:19;;;;;;;30.20;14.07;;;1.10;99.90;;;;;;5129718;27;20277;-78
2023/03/10 06:38:45;;;;;;;24.73;14.52;;;1.10;99.90;;;;;;5130352;27;20107;-81
2023/03/10 06:41:10;;;;;;;22.35;13.18;;;1.40;99.90;;;;;;5093131;27;20109;-77
2023/03/10 06:43:36;;;;;;;30.33;15.82;;;1.00;99.90;;;;;;5112081;27;20090;-78
2023/03/10 06:46:04;;;;;;;26.15;15.43;;;2.20;99.90;;;;;;5129043;27;20047;-79
2023/03/10 06:48:30;;;;;;;27.95;15.32;;;1.00;99.90;;;;;;5094403;27;20043;-77
2023/03/10 06:50:56;;;;;;;26.02;15.43;;;1.00;99.90;;;;;;5129318;27;20047;-77
2023/03/10 06:53:22;;;;;;;25.88;13.80;;;2.30;99.90;;;;;;5129528;27;20047;-78
2023/03/10 06:56:02;;;;;;;27.52;14.80;;;1.00;99.90;;;;;;5111760;27;20050;-83
2023/03/10 06:58:29;;;;;;;27.33;14.50;;;1.00;99.90;;;;;;5110282;27;20043;-82
2023/03/10 07:00:54;;;;;;;29.05;15.80;;;1.00;99.90;;;;;;5111702;27;20061;-77
2023/03/10 07:03:20;;;;;;;30.35;15.93;;;2.10;99.90;;;;;;5076291;27;20134;-77
2023/03/10 07:05:46;;;;;;;29.92;17.35;;;1.00;99.90;;;;;;5129514;27;20124;-78
2023/03/10 07:08:12;;;;;;;27.45;16.38;;;1.00;99.90;;;;;;5110945;27;20397;-77
2023/03/10 07:10:38;;;;;;;29.25;17.58;;;1.00;99.90;;;;;;5129077;27;20044;-77
2023/03/10 07:13:04;;;;;;;32.45;18.23;;;1.00;99.90;;;;;;5111938;27;20425;-77
2023/03/10 07:15:29;;;;;;;29.40;17.30;;;1.00;99.90;;;;;;5109574;27;20039;-78
2023/03/10 07:17:55;;;;;;;31.13;17.58;;;1.00;99.90;;;;;;5111774;27;20082;-78
2023/03/10 07:20:23;;;;;;;35.00;17.85;;;1.50;99.90;;;;;;5128876;27;20134;-78
2023/03/10 07:22:49;;;;;;;36.33;18.88;;;1.10;99.90;;;;;;5111022;27;20043;-79
2023/03/10 07:25:15;;;;;;;31.50;16.65;;;-0.10;99.90;;;;;;5110153;27;20054;-78
2023/03/10 07:27:40;;;;;;;36.25;18.02;;;1.10;99.90;;;;;;5128839;27;20078;-79
2023/03/10 07:30:07;;;;;;;34.97;18.48;;;1.10;99.90;;;;;;5111140;27;20079;-79
2023/03/10 07:32:33;;;;;;;33.22;17.50;;;1.10;99.90;;;;;;5127615;27;20578;-78
2023/03/10 07:34:59;;;;;;;35.05;17.85;;;1.20;99.90;;;;;;5130041;27;20047;-78
2023/03/10 07:37:24;;;;;;;32.55;17.02;;;1.20;99.90;;;;;;5127968;27;20035;-78
2023/03/10 07:39:53;;;;;;;32.60;17.05;;;1.20;99.90;;;;;;5110631;27;20035;-78
2023/03/10 07:42:19;;;;;;;29.73;15.98;;;1.70;99.90;;;;;;5110257;27;20316;-78
2023/03/10 07:44:44;;;;;;;28.85;17.13;;;1.30;99.90;;;;;;5092849;27;20116;-80
2023/03/10 07:47:10;;;;;;;32.20;16.73;;;1.30;99.90;;;;;;5093327;27;20039;-79
2023/03/10 07:49:36;;;;;;;28.85;15.63;;;1.30;99.90;;;;;;5109005;27;20047;-79
2023/03/10 07:52:02;;;;;;;29.48;15.55;;;1.30;99.90;;;;;;5110960;27;20047;-80
2023/03/10 07:54:27;;;;;;;26.92;15.48;;;1.30;99.90;;;;;;5127568;27;20042;-80
2023/03/10 07:56:53;;;;;;;30.60;16.38;;;2.10;99.90;;;;;;5110191;27;20406;-80
2023/03/10 07:59:19;;;;;;;28.88;16.70;;;1.40;99.90;;;;;;5093058;27;20042;-80
2023/03/10 08:01:44;;;;;;;29.73;16.13;;;2.00;99.90;;;;;;5127949;27;20540;-80
2023/03/10 08:04:11;;;;;;;29.15;16.17;;;1.40;99.90;;;;;;5128641;27;20043;-80
2023/03/10 08:06:37;;;;;;;29.80;16.67;;;3.00;99.90;;;;;;5108973;27;20050;-81
2023/03/10 08:09:03;;;;;;;31.58;17.42;;;2.80;99.90;;;;;;5129470;27;20074;-80
2023/03/10 08:11:29;;;;;;;27.88;17.15;;;2.20;99.90;;;;;;5108427;27;20481;-80
2023/03/10 08:13:55;;;;;;;32.17;17.63;;;1.40;99.90;;;;;;5093009;27;20066;-80
2023/03/10 08:16:21;;;;;;;31.02;17.05;;;2.90;99.90;;;;;;5075033;27;20039;-81
2023/03/10 08:18:50;;;;;;;26.38;15.90;;;2.80;99.90;;;;;;5109385;27;20050;-79
2023/03/10 08:21:15;;;;;;;30.52;15.93;;;1.40;99.90;;;;;;5127990;27;20047;-80
2023/03/10 08:23:41;;;;;;;27.23;15.10;;;1.40;99.90;;;;;;5108288;27;20427;-83
2023/03/10 08:26:11;;;;;;;32.13;15.68;;;1.40;99.90;;;;;;5128938;27;20096;-81
2023/03/10 08:28:37;;;;;;;25.50;15.35;;;1.40;99.90;;;;;;5107968;27;20039;-82
2023/03/10 08:31:11;;;;;;;28.88;17.20;;;2.80;99.90;;;;;;5109630;27;20085;-81
2023/03/10 08:33:38;;;;;;;25.95;14.57;;;2.30;99.90;;;;;;5125972;27;20047;-81
2023/03/10 08:36:07;;;;;;;27.50;16.45;;;1.90;99.90;;;;;;5127580;27;20039;-81
2023/03/10 08:38:33;;;;;;;28.85;15.82;;;1.40;99.90;;;;;;5092877;27;20344;-81
2023/03/10 08:41:12;;;;;;;28.23;16.83;;;2.00;99.90;;;;;;5126885;27;20631;-81
2023/03/10 08:43:38;;;;;;;27.60;15.75;;;1.40;99.90;;;;;;5109460;27;20050;-80
2023/03/10 08:46:04;;;;;;;31.00;17.15;;;2.20;99.90;;;;;;5108383;27;20083;-80
2023/03/10 08:48:30;;;;;;;27.80;16.30;;;1.50;99.90;;;;;;5108996;27;20122;-80
2023/03/10 08:50:56;;;;;;;27.73;16.60;;;1.50;99.90;;;;;;5108909;27;20126;-80
2023/03/10 08:53:22;;;;;;;31.98;17.42;;;1.50;99.90;;;;;;5108750;27;20043;-81
2023/03/10 08:55:48;;;;;;;32.50;17.48;;;3.00;99.90;;;;;;5109749;27;20035;-81
2023/03/10 08:58:14;;;;;;;29.35;16.95;;;1.60;99.90;;;;;;5107722;27;20169;-81
2023/03/10 09:00:41;;;;;;;29.30;16.15;;;1.60;99.90;;;;;;5092547;27;20084;-82
2023/03/10 09:03:09;;;;;;;27.70;15.70;;;1.60;99.90;;;;;;5090737;27;20040;-81
2023/03/10 09:05:36;;;;;;;25.40;15.13;;;1.60;99.90;;;;;;5109180;27;20486;-81
2023/03/10 09:08:02;;;;;;;29.15;16.85;;;1.60;99.90;;;;;;5126977;27;20402;-81
2023/03/10 09:10:28;;;;;;;30.88;17.90;;;1.60;99.90;;;;;;5127162;27;20043;-81
2023/03/10 09:12:54;;;;;;;27.38;17.13;;;3.10;99.90;;;;;;5127579;27;20050;-81
2023/03/10 09:15:20;;;;;;;29.42;17.17;;;1.60;99.90;;;;;;5126140;27;20046;-82
2023/03/10 09:17:46;;;;;;;24.90;15.82;;;1.50;99.90;;;;;;5109390;27;20443;-83
2023/03/10 09:20:14;;;;;;;26.48;16.25;;;1.50;99.90;;;;;;5126208;27;20039;-83
2023/03/10 09:22:40;;;;;;;26.65;16.00;;;1.60;99.90;;;;;;5127125;27;20548;-82
2023/03/10 09:25:09;;;;;;;26.40;15.98;;;1.60;99.90;;;;;;5128129;27;20047;-80
2023/03/10 09:27:35;;;;;;;27.85;15.43;;;1.60;99.90;;;;;;5128858;27;20083;-81
2023/03/10 09:30:00;;;;;;;22.98;14.52;;;1.60;99.90;;;;;;5127859;27;20077;-81
2023/03/10 09:32:26;;;;;;;27.95;16.35;;;3.00;99.90;;;;;;5107812;28;20043;-80
2023/03/10 09:34:52;;;;;;;26.70;15.38;;;1.60;99.90;;;;;;5109840;27;20047;-81
2023/03/10 09:37:18;;;;;;;24.70;14.93;;;1.70;99.90;;;;;;5125951;27;20500;-81
2023/03/10 09:39:44;;;;;;;25.40;14.23;;;3.00;99.90;;;;;;5127477;28;20039;-80
2023/03/10 09:42:32;;;;;;;28.73;16.23;;;1.70;99.90;;;;;;5126462;28;20049;-80
2023/03/10 09:44:58;;;;;;;27.38;15.38;;;1.70;99.90;;;;;;5125874;28;20482;-79
2023/03/10 09:47:50;;;;;;;24.15;14.68;;;1.70;99.90;;;;;;5127474;28;20054;-80
2023/03/10 09:50:48;;;;;;;28.02;15.32;;;1.60;99.90;;;;;;5090025;28;20039;-81
2023/03/10 09:53:46;;;;;;;31.10;15.48;;;1.70;99.90;;;;;;5092843;28;20055;-80
2023/03/10 09:56:23;;;;;;;20.55;12.55;;;1.70;99.90;;;;;;5096519;27;20047;-80
2023/03/10 09:59:00;;;;;;;34.65;15.77;;;1.80;99.90;;;;;;5129762;27;20046;-80
2023/03/10 10:01:30;;;;;;;24.70;13.70;;;1.80;99.90;;;;;;5130465;27;20095;-80
2023/03/10 10:04:04;;;;;;;27.33;14.82;;;2.00;99.90;;;;;;5111773;27;20054;-80
2023/03/10 10:06:34;;;;;;;29.50;14.35;;;1.70;99.90;;;;;;5111435;27;20055;-80
2023/03/10 10:09:04;;;;;;;25.80;15.40;;;2.80;99.90;;;;;;5112715;27;20224;-80
2023/03/10 10:11:30;;;;;;;24.67;14.35;;;1.70;99.90;;;;;;5111018;27;20509;-81
2023/03/10 10:14:13;;;;;;;25.52;14.65;;;1.70;99.90;;;;;;5095102;27;20047;-80
2023/03/10 10:16:46;;;;;;;;;;;1.70;99.90;;;;;;5130879;27;20070;-80
2023/03/10 10:19:18;;;;;;;21.83;11.38;;;1.70;99.90;;;;;;5130160;27;19919;-80
2023/03/10 10:21:56;;;;;;;24.23;13.73;;;1.70;99.90;;;;;;5112597;27;20059;-81
2023/03/10 10:24:22;;;;;;;25.00;13.70;;;1.80;99.90;;;;;;5110749;27;20074;-81
2023/03/10 10:26:47;;;;;;;23.00;14.10;;;2.20;99.90;;;;;;5111995;27;20043;-81
2023/03/10 10:29:22;;;;;;;25.25;16.30;;;1.80;99.90;;;;;;5111323;27;20043;-81
2023/03/10 10:32:02;;;;;;;25.48;14.05;;;1.80;99.90;;;;;;5130059;27;20485;-81
2023/03/10 10:34:27;;;;;;;24.50;15.18;;;2.30;99.90;;;;;;5131097;27;20043;-81
2023/03/10 10:36:55;;;;;;;25.88;14.70;;;1.90;99.90;;;;;;5110533;27;20066;-82
2023/03/10 10:39:33;;;;;;;24.00;14.90;;;2.00;99.90;;;;;;5112480;27;20051;-82
2023/03/10 10:42:19;;;;;;;25.20;14.50;;;2.00;99.90;;;;;;5111107;27;20061;-79
2023/03/10 10:44:45;;;;;;;27.00;14.77;;;1.90;99.90;;;;;;5129518;27;20050;-79
2023/03/10 10:47:30;;;;;;;25.23;15.05;;;1.90;99.90;;;;;;5130594;27;20047;-79
2023/03/10 10:50:30;;;;;;;21.85;13.60;;;1.90;99.90;;;;;;5129348;27;20035;-81
2023/03/10 10:53:23;;;;;;;22.63;13.98;;;3.10;99.90;;;;;;5085185;27;20065;-80
2023/03/10 10:56:01;;;;;;;27.70;14.90;;;2.00;99.90;;;;;;5112346;27;20043;-79
2023/03/10 10:58:36;;;;;;;25.20;14.93;;;1.90;99.90;;;;;;5128967;27;20368;-80
2023/03/10 11:01:13;;;;;;;26.83;15.20;;;2.00;99.90;;;;;;5110997;28;20621;-79
2023/03/10 11:03:40;;;;;;;23.35;14.15;;;2.00;99.90;;;;;;5109951;28;20055;-79
2023/03/10 11:06:28;;;;;;;21.83;14.43;;;2.00;99.90;;;;;;5109378;28;20047;-79
2023/03/10 11:09:07;;;;;;;24.40;14.43;;;2.10;99.90;;;;;;5110567;28;20057;-79
2023/03/10 11:11:45;;;;;;;27.45;15.82;;;3.00;99.90;;;;;;5127767;28;20051;-80
2023/03/10 11:14:27;;;;;;;23.65;14.07;;;2.10;99.90;;;;;;5110270;28;20099;-80
2023/03/10 11:17:01;;;;;;;23.80;13.00;;;0.80;99.90;;;;;;5128777;28;20127;-79
2023/03/10 11:19:42;;;;;;;28.60;14.75;;;2.10;99.90;;;;;;5091611;28;20039;-80
2023/03/10 11:22:31;;;;;;;25.77;14.45;;;2.20;99.90;;;;;;5128833;28;20603;-80
2023/03/10 11:25:36;;;;;;;24.80;14.52;;;2.10;99.90;;;;;;5098250;28;20047;-80
2023/03/10 11:28:21;;;;;;;27.58;14.15;;;2.10;99.90;;;;;;5081029;28;20047;-81
2023/03/10 11:30:55;;;;;;;22.13;13.48;;;2.00;99.90;;;;;;5128505;28;20126;-79
2023/03/10 11:33:43;;;;;;;25.30;15.18;;;2.10;99.90;;;;;;5109018;28;20047;-80
2023/03/10 11:36:26;;;;;;;24.83;14.98;;;2.10;99.90;;;;;;5127488;28;20035;-80
2023/03/10 11:39:01;;;;;;;20.20;13.57;;;2.00;99.90;;;;;;5110527;28;20118;-80
2023/03/10 11:41:32;;;;;;;22.60;13.30;;;2.00;99.90;;;;;;5127242;28;20118;-80
2023/03/10 11:44:18;;;;;;;26.45;14.15;;;2.00;99.90;;;;;;5109350;28;20544;-80
2023/03/10 11:46:55;;;;;;;24.10;13.13;;;1.90;99.90;;;;;;5108739;28;20051;-81
2023/03/10 11:49:26;;;;;;;25.88;14.35;;;2.00;99.90;;;;;;5127172;28;20137;-87
2023/03/10 11:52:24;;;;;;;23.58;13.85;;;1.90;99.90;;;;;;5110472;28;20328;-82
2023/03/10 11:54:57;;;;;;;24.17;14.43;;;1.90;99.90;;;;;;5081088;28;20086;-80
2023/03/10 11:57:38;;;;;;;24.05;14.63;;;1.90;99.90;;;;;;5108498;28;20061;-81
2023/03/10 12:00:14;;;;;;;25.70;15.83;;;2.30;99.90;;;;;;5081342;27;1331376;-79
2023/03/10 12:03:13;;;;;;;22.60;13.65;;;1.90;99.90;;;;;;5127627;27;20125;-81
2023/03/10 12:05:47;;;;;;;23.33;13.80;;;1.90;99.90;;;;;;5092914;27;20096;-81
2023/03/10 12:08:15;;;;;;;22.33;14.27;;;1.90;99.90;;;;;;5128733;27;20117;-81
2023/03/10 12:10:42;;;;;;;23.55;14.35;;;3.50;99.90;;;;;;5127559;27;20043;-80
2023/03/10 12:13:22;;;;;;;25.35;15.18;;;1.90;99.90;;;;;;5129411;27;20071;-81
2023/03/10 12:15:49;;;;;;;24.90;13.77;;;1.90;99.90;;;;;;5127244;27;20035;-81
2023/03/10 12:18:14;;;;;;;22.50;14.15;;;1.80;99.90;;;;;;5109028;27;20054;-80
2023/03/10 12:20:40;;;;;;;26.70;14.88;;;1.80;99.90;;;;;;5127748;27;20462;-81
2023/03/10 12:23:09;;;;;;;25.02;15.32;;;1.80;99.90;;;;;;5127467;27;20046;-81
2023/03/10 12:25:37;;;;;;;26.15;15.13;;;1.80;99.90;;;;;;5128320;27;20062;-81
2023/03/10 12:28:31;;;;;;;25.33;15.27;;;1.80;99.90;;;;;;5126791;27;20486;-81
2023/03/10 12:31:45;;;;;;;26.77;16.13;;;1.80;99.90;;;;;;5128142;27;20050;-81
2023/03/10 12:34:22;;;;;;;25.90;15.43;;;1.80;99.90;;;;;;5092464;27;20055;-80
2023/03/10 12:36:53;;;;;;;22.98;14.48;;;1.80;99.90;;;;;;5126615;27;20047;-80
2023/03/10 12:39:45;;;;;;;24.48;14.93;;;1.80;99.90;;;;;;5109976;27;20127;-80
2023/03/10 12:42:31;;;;;;;29.02;16.80;;;2.80;99.90;;;;;;5126728;27;20135;-80
2023/03/10 12:45:16;;;;;;;27.50;15.68;;;1.70;99.90;;;;;;5108052;27;20049;-79
2023/03/10 12:48:04;;;;;;;27.02;15.35;;;1.80;99.90;;;;;;5128515;27;20040;-79
2023/03/10 12:50:48;;;;;;;26.63;16.42;;;1.70;99.90;;;;;;5108383;27;20073;-80